Time;durP1;ratioP1;P1;durP2;ratioP2;P2;SDS_P1;SDS_P2;PMS_P1;PMS_P2;Temp;Humidity;BMP_temperature;BMP_pressure;BME280_temperature;BME280_humidity;BME280_pressure;Samples;Min_cycle;Max_cycle;Signal;HPM_P1;HPM_P2
2021/10/22 00:02:19;;;;;;;0.70;0.70;;;6.40;99.90;;;;;;5028465;28;20092;-77
2021/10/22 00:04:45;;;;;;;1.60;1.50;;;6.80;99.90;;;;;;5024504;28;20092;-80
2021/10/22 00:07:10;;;;;;;0.95;0.90;;;6.40;99.90;;;;;;4983409;28;20468;-85
2021/10/22 00:09:36;;;;;;;1.30;1.20;;;6.30;99.90;;;;;;4998386;28;20038;-80
2021/10/22 00:12:02;;;;;;;0.70;0.70;;;6.40;99.90;;;;;;5036587;28;20107;-81
2021/10/22 00:14:28;;;;;;;0.70;0.70;;;6.40;99.90;;;;;;5050372;28;20041;-80
2021/10/22 00:16:54;;;;;;;1.33;1.00;;;6.40;99.90;;;;;;5013458;28;20033;-82
2021/10/22 00:19:25;;;;;;;0.50;0.50;;;6.40;99.90;;;;;;5000433;28;20545;-80
2021/10/22 00:21:51;;;;;;;1.95;1.27;;;6.40;99.90;;;;;;5045315;28;20049;-79
2021/10/22 00:24:17;;;;;;;9.93;1.38;;;6.50;99.90;;;;;;5002773;28;20473;-78
2021/10/22 00:26:43;;;;;;;1.30;1.05;;;7.30;99.90;;;;;;5040121;28;20046;-82
2021/10/22 00:29:10;;;;;;;1.30;1.20;;;6.50;99.90;;;;;;5004777;28;20061;-79
2021/10/22 00:31:36;;;;;;;3.65;1.67;;;6.50;99.90;;;;;;5042805;28;20043;-81
2021/10/22 00:34:02;;;;;;;2.35;0.88;;;6.90;99.90;;;;;;5029652;28;20050;-82
2021/10/22 00:36:27;;;;;;;0.90;0.90;;;6.50;99.90;;;;;;5016185;28;20379;-80
2021/10/22 00:38:53;;;;;;;1.10;1.10;;;6.50;99.90;;;;;;4997385;28;20552;-80
2021/10/22 00:41:19;;;;;;;0.90;0.90;;;6.40;99.90;;;;;;5021272;28;20042;-78
2021/10/22 00:43:46;;;;;;;1.88;1.67;;;6.30;99.90;;;;;;5042676;28;20038;-81
2021/10/22 00:46:12;;;;;;;1.48;1.00;;;6.20;99.90;;;;;;5028681;28;20048;-79
2021/10/22 00:48:39;;;;;;;0.50;0.50;;;6.00;99.90;;;;;;5046752;28;20046;-83
2021/10/22 00:51:08;;;;;;;6.03;1.73;;;6.50;99.90;;;;;;4996463;28;20085;-81
2021/10/22 00:53:38;;;;;;;0.95;0.75;;;5.90;99.90;;;;;;5013364;28;20033;-81
2021/10/22 00:56:08;;;;;;;0.80;0.80;;;5.90;99.90;;;;;;4980294;28;20475;-80
2021/10/22 00:58:36;;;;;;;3.58;1.25;;;5.80;99.90;;;;;;4996271;28;20045;-80
2021/10/22 01:01:02;;;;;;;2.83;1.10;;;6.10;99.90;;;;;;5016537;28;20491;-79
2021/10/22 01:03:27;;;;;;;1.95;1.30;;;5.90;99.90;;;;;;4986466;28;20045;-80
2021/10/22 01:05:53;;;;;;;0.95;0.95;;;5.90;99.90;;;;;;5016911;28;20037;-79
2021/10/22 01:08:19;;;;;;;13.13;1.45;;;5.90;99.90;;;;;;5012242;28;20487;-80
2021/10/22 01:10:46;;;;;;;8.90;1.30;;;6.00;99.90;;;;;;5012638;28;20038;-78
2021/10/22 01:13:18;;;;;;;2.35;1.08;;;6.10;99.90;;;;;;4987620;28;20096;-85
2021/10/22 01:15:44;;;;;;;0.98;0.98;;;6.10;99.90;;;;;;5027557;28;20034;-77
2021/10/22 01:18:09;;;;;;;0.82;0.82;;;6.20;99.90;;;;;;5027231;28;20480;-79
2021/10/22 01:20:42;;;;;;;2.35;0.80;;;6.20;99.90;;;;;;4998143;28;20048;-77
2021/10/22 01:23:08;;;;;;;1.45;1.13;;;6.30;99.90;;;;;;5052570;28;20041;-82
2021/10/22 01:25:34;;;;;;;;;;;6.40;99.90;;;;;;5024002;28;20058;-81
2021/10/22 01:28:01;;;;;;;1.08;1.00;;;6.40;99.90;;;;;;5027612;28;19917;-82
2021/10/22 01:30:29;;;;;;;1.33;1.25;;;6.50;99.90;;;;;;5020942;28;20057;-79
2021/10/22 01:33:05;;;;;;;2.80;1.63;;;6.50;99.90;;;;;;5015480;28;20522;-83
2021/10/22 01:35:32;;;;;;;0.90;0.90;;;6.70;99.90;;;;;;5044451;28;20070;-79
2021/10/22 01:37:58;;;;;;;2.85;1.00;;;7.40;99.90;;;;;;5016160;28;20037;-80
2021/10/22 01:40:24;;;;;;;0.73;0.73;;;7.00;99.90;;;;;;5020060;28;20572;-81
2021/10/22 01:42:50;;;;;;;0.90;0.85;;;7.20;99.90;;;;;;5034205;28;20053;-78
2021/10/22 01:45:16;;;;;;;0.90;0.90;;;7.30;99.90;;;;;;4999078;28;20037;-83
2021/10/22 01:47:42;;;;;;;1.02;1.00;;;7.30;99.90;;;;;;5028126;28;20037;-77
2021/10/22 01:50:08;;;;;;;0.73;0.73;;;7.30;99.90;;;;;;4976897;28;20041;-80
2021/10/22 01:52:34;;;;;;;1.45;1.20;;;7.20;99.90;;;;;;5029255;28;20038;-80
2021/10/22 01:55:00;;;;;;;1.00;0.90;;;7.10;99.90;;;;;;5028628;28;20030;-78
2021/10/22 01:57:27;;;;;;;11.20;1.30;;;7.00;99.90;;;;;;5026992;28;20045;-78
2021/10/22 01:59:54;;;;;;;6.00;2.75;;;7.20;99.90;;;;;;5011785;28;20349;-80
2021/10/22 02:02:19;;;;;;;1.50;1.00;;;7.20;99.90;;;;;;5031395;28;20037;-79
2021/10/22 02:04:46;;;;;;;3.35;1.20;;;7.20;99.90;;;;;;5026366;28;20101;-79
2021/10/22 02:07:12;;;;;;;2.72;1.30;;;7.30;99.90;;;;;;5000779;28;20054;-80
2021/10/22 02:09:38;;;;;;;1.30;1.20;;;7.30;99.90;;;;;;5028633;28;20104;-82
2021/10/22 02:12:05;;;;;;;13.70;2.25;;;7.20;99.90;;;;;;5010343;28;20438;-79
2021/10/22 02:14:30;;;;;;;1.35;1.20;;;7.10;99.90;;;;;;5026841;28;20112;-80
2021/10/22 02:16:56;;;;;;;6.65;0.95;;;7.00;99.90;;;;;;5013606;28;20035;-82
2021/10/22 02:19:22;;;;;;;2.53;1.70;;;6.90;99.90;;;;;;5007571;28;20045;-81
2021/10/22 02:21:48;;;;;;;1.85;1.02;;;6.80;99.90;;;;;;5044222;28;20037;-80
2021/10/22 02:24:14;;;;;;;3.70;1.35;;;6.80;99.90;;;;;;5008337;28;20060;-79
2021/10/22 02:26:39;;;;;;;0.98;0.93;;;6.80;99.90;;;;;;5037839;28;20064;-84
2021/10/22 02:29:05;;;;;;;1.15;1.08;;;6.90;99.90;;;;;;5010855;28;20053;-81
2021/10/22 02:31:31;;;;;;;1.15;1.13;;;7.40;99.90;;;;;;5017067;28;20165;-77
2021/10/22 02:33:57;;;;;;;2.33;1.30;;;7.10;99.90;;;;;;5030624;28;20057;-81
2021/10/22 02:36:22;;;;;;;2.63;1.17;;;8.30;99.90;;;;;;5012665;28;20111;-79
2021/10/22 02:38:49;;;;;;;1.35;1.25;;;7.50;99.90;;;;;;5027506;28;20475;-79
2021/10/22 02:41:15;;;;;;;;;;;7.40;99.90;;;;;;5018143;28;20403;-79
2021/10/22 02:43:49;;;;;;;2.13;1.38;;;7.20;99.90;;;;;;5027229;28;19975;-80
2021/10/22 02:46:16;;;;;;;0.95;0.95;;;7.20;99.90;;;;;;5010868;28;20042;-79
2021/10/22 02:48:42;;;;;;;1.58;1.00;;;7.20;99.90;;;;;;4998262;28;20688;-79
2021/10/22 02:51:08;;;;;;;2.97;1.30;;;7.30;99.90;;;;;;5032094;28;20070;-79
2021/10/22 02:53:34;;;;;;;1.95;0.85;;;7.20;99.90;;;;;;5025035;28;20135;-80
2021/10/22 02:56:00;;;;;;;1.20;1.13;;;7.10;99.90;;;;;;5005443;28;20038;-81
2021/10/22 02:58:26;;;;;;;0.68;0.68;;;7.10;99.90;;;;;;5007461;28;20037;-81
2021/10/22 03:00:51;;;;;;;0.85;0.85;;;7.10;99.90;;;;;;4980670;28;20053;-82
2021/10/22 03:03:17;;;;;;;2.85;1.50;;;7.10;99.90;;;;;;5040085;28;20060;-81
2021/10/22 03:05:44;;;;;;;3.03;0.98;;;7.20;99.90;;;;;;5010391;28;20077;-81
2021/10/22 03:08:09;;;;;;;2.10;1.55;;;7.20;99.90;;;;;;5031103;28;20046;-83
2021/10/22 03:10:35;;;;;;;1.52;1.00;;;7.20;99.90;;;;;;5011196;28;20176;-81
2021/10/22 03:13:02;;;;;;;3.10;1.08;;;7.40;99.90;;;;;;5036253;28;20038;-83
2021/10/22 03:15:27;;;;;;;3.80;1.15;;;7.40;99.90;;;;;;5023220;28;20064;-82
2021/10/22 03:17:57;;;;;;;1.17;1.08;;;7.50;99.90;;;;;;5019927;28;20124;-80
2021/10/22 03:20:24;;;;;;;2.17;1.17;;;7.60;99.90;;;;;;5045628;28;20407;-81
2021/10/22 03:22:50;;;;;;;3.28;1.52;;;7.70;99.90;;;;;;5064419;28;20106;-86
2021/10/22 03:25:16;;;;;;;1.85;1.42;;;7.70;99.90;;;;;;5017765;28;20430;-82
2021/10/22 03:27:42;;;;;;;11.48;1.88;;;7.80;99.90;;;;;;5022663;28;20056;-83
2021/10/22 03:30:10;;;;;;;0.93;0.90;;;7.80;99.90;;;;;;5028941;28;20072;-80
2021/10/22 03:32:36;;;;;;;1.33;1.00;;;7.70;99.90;;;;;;5028866;28;20345;-81
2021/10/22 03:35:05;;;;;;;1.33;1.15;;;7.70;99.90;;;;;;5034600;28;20033;-81
2021/10/22 03:37:30;;;;;;;0.65;0.65;;;7.60;99.90;;;;;;5051131;28;20054;-82
2021/10/22 03:39:56;;;;;;;5.55;1.38;;;7.60;99.90;;;;;;5023879;28;20903;-79
2021/10/22 03:42:22;;;;;;;3.33;1.55;;;7.50;99.90;;;;;;5023377;28;20048;-80
2021/10/22 03:44:48;;;;;;;1.00;0.85;;;7.40;99.90;;;;;;5014109;28;20121;-80
2021/10/22 03:47:13;;;;;;;1.95;1.20;;;7.40;99.90;;;;;;5012000;28;20042;-79
2021/10/22 03:49:39;;;;;;;1.15;1.13;;;7.40;99.90;;;;;;5042759;28;20077;-80
2021/10/22 03:52:05;;;;;;;13.85;1.42;;;7.60;99.90;;;;;;5009632;28;20408;-83
2021/10/22 03:54:31;;;;;;;4.53;1.42;;;7.30;99.90;;;;;;5047892;28;20130;-80
2021/10/22 03:56:57;;;;;;;3.30;1.40;;;7.50;99.90;;;;;;5022950;28;20626;-82
2021/10/22 03:59:22;;;;;;;;;;;7.50;99.90;;;;;;5036029;28;20460;-82
2021/10/22 04:01:50;;;;;;;5.45;2.35;;;7.60;99.90;;;;;;5045910;28;19925;-82
2021/10/22 04:04:27;;;;;;;3.83;0.90;;;7.70;99.90;;;;;;5012715;28;20139;-81
2021/10/22 04:06:53;;;;;;;0.70;0.70;;;7.70;99.90;;;;;;5029493;28;20448;-79
2021/10/22 04:09:18;;;;;;;2.38;1.17;;;7.70;99.90;;;;;;5020618;28;20115;-83
2021/10/22 04:11:44;;;;;;;5.28;1.10;;;7.80;99.90;;;;;;4999131;28;20472;-81
2021/10/22 04:14:11;;;;;;;1.08;1.00;;;7.90;99.90;;;;;;5031912;28;20069;-81
2021/10/22 04:16:37;;;;;;;2.17;1.00;;;7.90;99.90;;;;;;5023993;28;20049;-80
2021/10/22 04:19:03;;;;;;;0.82;0.82;;;8.00;99.90;;;;;;5012142;28;20050;-83
2021/10/22 04:21:28;;;;;;;4.35;1.30;;;8.00;99.90;;;;;;5010523;28;20112;-80
2021/10/22 04:23:54;;;;;;;0.80;0.80;;;8.00;99.90;;;;;;5045855;28;20050;-83
2021/10/22 04:26:20;;;;;;;1.23;1.05;;;8.10;99.90;;;;;;5028597;28;20100;-78
2021/10/22 04:28:46;;;;;;;0.85;0.85;;;7.90;99.90;;;;;;5022244;28;20092;-80
2021/10/22 04:31:12;;;;;;;1.30;1.13;;;7.80;99.90;;;;;;5027843;28;20072;-80
2021/10/22 04:33:39;;;;;;;1.27;1.00;;;7.80;99.90;;;;;;5031180;28;20048;-80
2021/10/22 04:36:08;;;;;;;2.85;1.13;;;7.90;99.90;;;;;;4994701;28;20039;-81
2021/10/22 04:41:18;;;;;;;2.80;1.48;;;8.00;99.90;;;;;;5018078;28;20050;-81
2021/10/22 04:43:43;;;;;;;0.93;0.93;;;7.90;99.90;;;;;;5031702;28;20042;-79
2021/10/22 04:46:09;;;;;;;1.08;1.05;;;7.90;99.90;;;;;;5024437;28;20076;-79
2021/10/22 04:48:35;;;;;;;2.35;1.15;;;7.80;99.90;;;;;;5028974;28;20048;-79
2021/10/22 04:51:01;;;;;;;3.08;1.30;;;7.80;99.90;;;;;;5026903;28;20072;-79
2021/10/22 04:53:27;;;;;;;1.00;0.90;;;7.70;99.90;;;;;;5033414;28;20038;-80
2021/10/22 04:55:54;;;;;;;2.42;1.27;;;7.80;99.90;;;;;;5029851;28;20052;-80
2021/10/22 04:58:19;;;;;;;1.02;0.85;;;7.80;99.90;;;;;;5034188;28;20041;-80
2021/10/22 05:00:46;;;;;;;1.23;0.93;;;7.90;99.90;;;;;;4997727;28;20044;-82
2021/10/22 05:03:12;;;;;;;5.00;1.67;;;8.00;99.90;;;;;;4983082;28;20042;-79
2021/10/22 05:05:38;;;;;;;3.33;1.25;;;8.10;99.90;;;;;;4996965;28;20034;-80
2021/10/22 05:08:04;;;;;;;0.60;0.60;;;8.20;99.90;;;;;;5026791;28;20088;-81
2021/10/22 05:10:30;;;;;;;0.82;0.82;;;8.30;99.90;;;;;;5025840;28;20128;-78
2021/10/22 05:12:56;;;;;;;;;;;8.30;99.90;;;;;;5033287;28;20120;-79
2021/10/22 05:15:23;;;;;;;3.00;1.33;;;8.30;99.90;;;;;;5020228;28;19917;-80
2021/10/22 05:17:49;;;;;;;1.30;1.17;;;8.10;99.90;;;;;;4998372;28;20042;-80
2021/10/22 05:20:15;;;;;;;1.60;1.17;;;8.10;99.90;;;;;;5019933;28;20096;-80
2021/10/22 05:22:41;;;;;;;3.63;1.15;;;8.00;99.90;;;;;;5029462;28;20044;-81
2021/10/22 05:25:09;;;;;;;3.47;1.45;;;8.00;99.90;;;;;;5042275;28;20045;-80
2021/10/22 05:27:35;;;;;;;6.75;1.13;;;8.00;99.90;;;;;;5006294;28;20076;-86
2021/10/22 05:30:02;;;;;;;1.00;1.00;;;8.00;99.90;;;;;;5006137;28;20084;-81
2021/10/22 05:32:28;;;;;;;2.95;1.58;;;8.00;99.90;;;;;;5027899;28;20046;-80
2021/10/22 05:34:53;;;;;;;1.42;1.15;;;8.10;99.90;;;;;;4995524;28;20041;-80
2021/10/22 05:37:20;;;;;;;4.13;1.48;;;8.10;99.90;;;;;;5040573;28;20037;-79
2021/10/22 05:39:46;;;;;;;4.03;1.13;;;8.20;99.90;;;;;;5027624;28;20049;-83
2021/10/22 05:42:12;;;;;;;4.18;1.25;;;8.10;99.90;;;;;;5017074;28;20905;-81
2021/10/22 05:44:37;;;;;;;1.63;1.10;;;8.10;99.90;;;;;;5030370;28;20048;-82
2021/10/22 05:47:03;;;;;;;1.00;0.90;;;8.10;99.90;;;;;;5041936;28;20409;-82
2021/10/22 05:49:29;;;;;;;0.60;0.60;;;8.10;99.90;;;;;;5024647;28;20573;-80
2021/10/22 05:51:55;;;;;;;1.40;1.02;;;8.10;99.90;;;;;;5054998;28;20484;-82
2021/10/22 05:54:21;;;;;;;1.25;0.95;;;8.20;99.90;;;;;;5014409;28;20098;-81
2021/10/22 05:56:49;;;;;;;0.80;0.80;;;8.30;99.90;;;;;;5038461;28;20046;-84
2021/10/22 05:59:16;;;;;;;2.95;1.23;;;8.40;99.90;;;;;;5050141;28;20053;-83
2021/10/22 06:01:42;;;;;;;1.13;1.02;;;8.40;99.90;;;;;;5023224;28;20045;-83
2021/10/22 06:04:08;;;;;;;2.85;1.10;;;8.40;99.90;;;;;;5030168;28;20395;-81
2021/10/22 06:06:34;;;;;;;1.35;0.82;;;8.30;99.90;;;;;;5036342;28;20060;-82
2021/10/22 06:08:59;;;;;;;1.33;1.00;;;8.20;99.90;;;;;;5032647;28;20428;-81
2021/10/22 06:11:26;;;;;;;1.27;1.17;;;8.20;99.90;;;;;;5043038;28;20434;-81
2021/10/22 06:13:51;;;;;;;1.13;0.98;;;8.20;99.90;;;;;;5017645;28;20118;-84
2021/10/22 06:16:18;;;;;;;0.60;0.60;;;8.10;99.90;;;;;;5025522;28;20042;-83
2021/10/22 06:18:48;;;;;;;1.98;1.08;;;8.20;99.90;;;;;;5036951;28;20752;-79
2021/10/22 06:21:53;;;;;;;3.90;1.20;;;8.30;99.90;;;;;;5026927;28;20874;-82
2021/10/22 06:24:19;;;;;;;8.40;1.48;;;8.30;99.90;;;;;;5025606;28;20379;-80
2021/10/22 06:26:44;;;;;;;3.28;1.10;;;8.30;99.90;;;;;;5012093;28;20042;-79
2021/10/22 06:29:12;;;;;;;1.02;0.70;;;8.30;99.90;;;;;;5029689;28;20465;-79
2021/10/22 06:31:40;;;;;;;1.77;1.02;;;8.30;99.90;;;;;;5017372;28;20525;-81
2021/10/22 06:34:07;;;;;;;0.80;0.80;;;8.30;99.90;;;;;;5029982;28;20080;-82
2021/10/22 06:36:33;;;;;;;2.40;1.45;;;8.20;99.90;;;;;;5032679;28;20037;-83
2021/10/22 06:38:59;;;;;;;0.80;0.80;;;8.10;99.90;;;;;;5034465;28;20047;-83
2021/10/22 06:41:25;;;;;;;3.10;0.85;;;8.10;99.90;;;;;;5031901;28;20041;-78
2021/10/22 06:43:51;;;;;;;12.65;1.95;;;8.00;99.90;;;;;;5056772;28;20044;-83
2021/10/22 06:46:17;;;;;;;2.05;1.70;;;8.00;99.90;;;;;;5047526;28;20053;-77
2021/10/22 06:48:44;;;;;;;;;;;8.00;99.90;;;;;;4993145;28;20057;-80
2021/10/22 06:51:13;;;;;;;1.00;0.90;;;7.90;99.90;;;;;;5013546;28;19928;-79
2021/10/22 06:53:39;;;;;;;7.35;0.88;;;7.90;99.90;;;;;;5015421;28;20116;-83
2021/10/22 06:56:06;;;;;;;3.17;0.98;;;8.00;99.90;;;;;;5028173;28;20049;-81
2021/10/22 06:58:32;;;;;;;1.67;1.00;;;8.00;99.90;;;;;;5020084;28;20056;-79
2021/10/22 07:00:59;;;;;;;2.47;1.55;;;8.10;99.90;;;;;;5036244;28;20037;-81
2021/10/22 07:03:27;;;;;;;1.83;1.05;;;8.10;99.90;;;;;;5040033;28;20063;-81
2021/10/22 07:08:23;;;;;;;0.85;0.85;;;8.30;99.90;;;;;;5032843;28;20045;-81
2021/10/22 07:10:48;;;;;;;1.27;1.17;;;8.30;99.90;;;;;;5033799;28;20120;-82
2021/10/22 07:13:14;;;;;;;2.30;1.20;;;8.30;99.90;;;;;;4999380;28;20069;-82
2021/10/22 07:15:40;;;;;;;1.08;1.08;;;8.30;99.90;;;;;;5038437;28;20045;-79
2021/10/22 07:18:06;;;;;;;1.00;0.77;;;8.30;99.90;;;;;;5016644;28;20037;-79
2021/10/22 07:20:33;;;;;;;1.23;1.02;;;8.40;99.90;;;;;;5014958;28;20049;-83
2021/10/22 07:23:04;;;;;;;0.60;0.60;;;8.40;99.90;;;;;;5036061;28;20045;-83
2021/10/22 07:25:31;;;;;;;1.35;1.05;;;8.40;99.90;;;;;;5037854;28;20069;-81
2021/10/22 07:27:57;;;;;;;1.77;1.10;;;8.50;99.90;;;;;;5014359;28;20057;-78
2021/10/22 07:30:23;;;;;;;0.88;0.88;;;8.50;99.90;;;;;;5034210;28;20049;-86
2021/10/22 07:32:49;;;;;;;0.70;0.70;;;8.50;99.90;;;;;;5001110;28;20053;-80
2021/10/22 07:35:15;;;;;;;5.80;1.67;;;8.50;99.90;;;;;;5035611;28;20045;-83
2021/10/22 07:37:43;;;;;;;1.23;1.05;;;8.50;99.90;;;;;;5054195;28;20038;-83
2021/10/22 07:40:09;;;;;;;10.40;1.73;;;8.60;99.90;;;;;;5013397;28;20045;-83
2021/10/22 07:42:35;;;;;;;;;;;8.60;99.90;;;;;;5035973;28;20041;-81
2021/10/22 07:45:05;;;;;;;1.15;1.00;;;8.60;99.90;;;;;;5037713;28;20398;-81
2021/10/22 07:47:33;;;;;;;3.75;2.08;;;8.60;99.90;;;;;;5031405;28;20047;-82
2021/10/22 07:49:59;;;;;;;1.50;1.17;;;8.50;99.90;;;;;;5050520;28;20052;-81
2021/10/22 07:52:27;;;;;;;2.22;1.35;;;8.50;99.90;;;;;;5040696;28;20375;-83
2021/10/22 07:54:54;;;;;;;7.53;1.70;;;8.40;99.90;;;;;;5045172;28;20476;-84
2021/10/22 07:57:23;;;;;;;1.98;1.27;;;8.50;99.90;;;;;;5031088;28;20123;-84
2021/10/22 07:59:50;;;;;;;1.10;0.95;;;8.20;99.90;;;;;;5020941;28;20123;-81
2021/10/22 08:02:17;;;;;;;0.75;0.63;;;8.10;99.90;;;;;;5008465;28;20037;-84
2021/10/22 08:04:48;;;;;;;7.55;1.52;;;8.10;99.90;;;;;;5041775;28;20052;-84
2021/10/22 08:07:16;;;;;;;0.80;0.80;;;8.20;99.90;;;;;;5055085;28;20079;-84
2021/10/22 08:09:44;;;;;;;1.85;1.50;;;8.20;99.90;;;;;;5033098;28;20099;-81
2021/10/22 08:12:15;;;;;;;0.70;0.70;;;8.30;99.90;;;;;;5031474;28;20042;-80
2021/10/22 08:14:46;;;;;;;1.77;1.08;;;8.30;99.90;;;;;;5022959;28;20041;-82
2021/10/22 08:17:13;;;;;;;2.17;1.20;;;8.30;99.90;;;;;;5020717;28;20391;-85
2021/10/22 08:19:40;;;;;;;1.63;1.30;;;8.30;99.90;;;;;;5021162;28;20383;-82
2021/10/22 08:24:32;;;;;;;;;;;8.40;99.90;;;;;;5039369;28;20058;-82
2021/10/22 08:27:00;;;;;;;1.10;1.00;;;8.50;99.90;;;;;;5023366;28;19917;-85
2021/10/22 08:29:29;;;;;;;1.75;1.50;;;8.50;99.90;;;;;;5034413;28;20395;-81
2021/10/22 08:31:54;;;;;;;3.72;1.77;;;8.70;99.90;;;;;;5040020;28;20046;-87
2021/10/22 08:34:20;;;;;;;1.20;1.10;;;8.90;99.90;;;;;;5030667;28;20613;-85
2021/10/22 08:36:46;;;;;;;3.63;0.95;;;9.00;99.90;;;;;;5018279;28;20046;-85
2021/10/22 08:39:12;;;;;;;5.05;1.48;;;9.00;99.90;;;;;;5028229;28;20033;-80
2021/10/22 08:41:39;;;;;;;;;;;9.10;99.90;;;;;;5015510;28;20119;-81
2021/10/22 08:44:05;;;;;;;2.97;1.35;;;9.20;99.90;;;;;;5044737;28;19922;-82
2021/10/22 08:46:35;;;;;;;8.30;1.45;;;9.20;99.90;;;;;;5037011;28;20045;-79
2021/10/22 08:49:02;;;;;;;0.88;0.88;;;9.30;99.90;;;;;;5021967;28;20076;-80
2021/10/22 08:51:28;;;;;;;0.70;0.70;;;9.40;99.90;;;;;;5016889;28;20085;-81
2021/10/22 08:53:53;;;;;;;2.58;1.90;;;9.50;99.90;;;;;;5030140;28;20053;-79
2021/10/22 08:56:20;;;;;;;5.95;1.38;;;9.60;99.90;;;;;;5020216;28;20051;-79
2021/10/22 08:58:46;;;;;;;3.97;1.33;;;9.70;99.90;;;;;;5036426;28;20092;-79
2021/10/22 09:01:12;;;;;;;;;;;9.90;99.90;;;;;;5014489;28;20053;-77
2021/10/22 09:03:39;;;;;;;1.38;0.93;;;10.00;99.90;;;;;;5037992;28;19923;-78
2021/10/22 09:06:17;;;;;;;4.55;1.98;;;10.20;99.90;;;;;;5036639;28;20054;-79
2021/10/22 09:08:45;;;;;;;0.60;0.60;;;10.30;99.90;;;;;;5025782;28;20041;-76
2021/10/22 09:11:30;;;;;;;3.17;1.10;;;10.50;99.90;;;;;;5021320;28;20050;-79
2021/10/22 09:14:15;;;;;;;4.28;1.10;;;10.70;99.90;;;;;;5017932;28;20050;-80
2021/10/22 09:16:43;;;;;;;8.63;1.63;;;10.90;99.90;;;;;;5027174;28;20502;-76
2021/10/22 09:19:10;;;;;;;6.13;0.95;;;11.00;99.90;;;;;;5024631;28;20049;-77
2021/10/22 09:21:36;;;;;;;2.53;0.90;;;11.00;99.90;;;;;;5025366;28;20107;-83
2021/10/22 09:24:17;;;;;;;1.13;1.02;;;10.90;99.90;;;;;;5045132;28;20512;-80
2021/10/22 09:26:59;;;;;;;4.18;1.65;;;10.50;99.90;;;;;;5025366;28;20053;-82
2021/10/22 09:29:27;;;;;;;0.80;0.77;;;10.10;99.90;;;;;;4991754;28;20088;-82
2021/10/22 09:31:56;;;;;;;3.03;1.13;;;9.70;99.90;;;;;;5002479;28;20092;-81
2021/10/22 09:34:36;;;;;;;3.03;1.52;;;9.40;99.90;;;;;;5048862;28;20513;-81
2021/10/22 09:37:04;;;;;;;1.45;1.08;;;9.10;99.90;;;;;;5004537;28;20049;-81
2021/10/22 09:39:36;;;;;;;3.00;1.52;;;9.00;99.90;;;;;;5016733;28;20161;-85
2021/10/22 09:42:16;;;;;;;1.73;1.00;;;8.90;99.90;;;;;;5008187;28;20052;-82
2021/10/22 09:44:44;;;;;;;3.25;1.35;;;8.70;99.90;;;;;;5014727;28;20046;-81
2021/10/22 09:47:20;;;;;;;1.63;0.95;;;8.60;99.90;;;;;;5045940;28;20115;-81
2021/10/22 09:49:50;;;;;;;6.05;1.55;;;8.50;99.90;;;;;;5032168;28;20072;-79
2021/10/22 09:52:21;;;;;;;0.73;0.73;;;8.50;99.90;;;;;;5014605;28;20049;-77
2021/10/22 09:55:05;;;;;;;5.55;2.10;;;8.40;99.90;;;;;;5053082;28;20030;-79
2021/10/22 09:57:31;;;;;;;0.70;0.70;;;8.40;99.90;;;;;;5066233;28;20033;-79
2021/10/22 10:00:12;;;;;;;1.88;1.20;;;8.40;99.90;;;;;;5012595;28;20058;-77
2021/10/22 10:02:42;;;;;;;2.20;0.90;;;8.50;99.90;;;;;;5023631;28;20068;-80
2021/10/22 10:05:11;;;;;;;0.60;0.60;;;8.50;99.90;;;;;;5043716;28;20395;-81
2021/10/22 10:07:38;;;;;;;4.70;1.20;;;8.60;99.90;;;;;;5039811;28;20108;-77
2021/10/22 10:10:06;;;;;;;0.90;0.90;;;8.70;99.90;;;;;;5025233;28;20391;-79
2021/10/22 10:12:35;;;;;;;1.90;1.33;;;8.60;99.90;;;;;;5038500;28;20045;-83
2021/10/22 10:15:02;;;;;;;1.00;0.98;;;8.60;99.90;;;;;;5021097;28;20042;-80
2021/10/22 10:17:32;;;;;;;3.13;1.10;;;8.70;99.90;;;;;;5032512;28;20510;-83
2021/10/22 10:19:58;;;;;;;2.10;1.08;;;8.60;99.90;;;;;;5024990;28;20073;-80
2021/10/22 10:22:30;;;;;;;2.50;1.23;;;8.60;99.90;;;;;;5027087;28;20091;-83
2021/10/22 10:25:04;;;;;;;2.28;1.05;;;8.70;99.90;;;;;;5034549;28;20480;-80
2021/10/22 10:27:42;;;;;;;0.95;0.95;;;8.60;99.90;;;;;;5043978;28;20402;-83
2021/10/22 10:30:12;;;;;;;1.25;1.00;;;8.70;99.90;;;;;;5012546;28;20049;-79
2021/10/22 10:32:42;;;;;;;4.70;0.93;;;8.80;99.90;;;;;;5006675;28;20116;-84
2021/10/22 10:35:13;;;;;;;4.40;1.58;;;8.80;99.90;;;;;;5027503;28;20033;-83
2021/10/22 10:37:41;;;;;;;1.27;1.17;;;8.90;99.90;;;;;;5051556;28;20369;-83
2021/10/22 10:40:11;;;;;;;0.95;0.80;;;8.90;99.90;;;;;;5035785;28;20045;-82
2021/10/22 10:43:16;;;;;;;1.13;1.02;;;8.90;99.90;;;;;;5027492;28;20050;-83
2021/10/22 10:45:43;;;;;;;2.38;1.30;;;9.00;99.90;;;;;;5016357;28;20076;-82
2021/10/22 10:48:17;;;;;;;5.63;1.73;;;9.10;99.90;;;;;;5022410;28;20480;-82
2021/10/22 10:50:51;;;;;;;15.43;2.22;;;9.20;99.90;;;;;;5002669;28;20037;-81
2021/10/22 10:53:39;;;;;;;1.55;1.13;;;9.30;99.90;;;;;;5026970;28;20124;-82
2021/10/22 10:56:33;;;;;;;1.05;1.00;;;9.30;99.90;;;;;;5019228;28;20037;-80
2021/10/22 10:58:58;;;;;;;3.15;1.45;;;9.20;99.90;;;;;;5049612;28;20045;-83
2021/10/22 11:01:35;;;;;;;0.45;0.45;;;9.10;99.90;;;;;;5000054;28;20045;-80
2021/10/22 11:04:01;;;;;;;1.27;0.52;;;8.90;99.90;;;;;;5050503;28;20042;-81
2021/10/22 11:06:46;;;;;;;1.20;0.95;;;8.60;99.90;;;;;;5062370;28;20050;-81
2021/10/22 11:09:16;;;;;;;0.88;0.88;;;8.30;99.90;;;;;;5022465;28;20039;-79
2021/10/22 11:11:42;;;;;;;1.05;0.95;;;8.20;99.90;;;;;;5025672;28;20034;-83
2021/10/22 11:14:08;;;;;;;0.60;0.60;;;8.20;99.90;;;;;;5033607;28;20072;-80
2021/10/22 11:16:54;;;;;;;0.70;0.70;;;8.20;99.90;;;;;;5038978;28;20046;-83
2021/10/22 11:19:31;;;;;;;2.03;1.00;;;8.10;99.90;;;;;;5016000;28;20120;-84
2021/10/22 11:22:01;;;;;;;1.20;0.93;;;8.30;99.90;;;;;;5048550;28;20061;-82
2021/10/22 11:24:30;;;;;;;1.20;1.08;;;8.40;99.90;;;;;;5023501;28;20061;-80
2021/10/22 11:27:02;;;;;;;0.80;0.80;;;8.70;99.90;;;;;;5041090;28;20053;-82
2021/10/22 11:29:31;;;;;;;1.85;1.13;;;8.80;99.90;;;;;;5032850;28;20049;-83
2021/10/22 11:32:18;;;;;;;2.28;1.35;;;8.80;99.90;;;;;;5023753;28;20543;-84
2021/10/22 11:34:56;;;;;;;3.25;1.02;;;8.80;99.90;;;;;;5029717;28;20034;-82
2021/10/22 11:37:25;;;;;;;1.48;1.00;;;8.80;99.90;;;;;;5023464;28;20046;-75
2021/10/22 11:39:56;;;;;;;2.15;1.05;;;8.80;99.90;;;;;;5023616;28;20038;-80
2021/10/22 11:42:28;;;;;;;2.00;1.10;;;8.90;99.90;;;;;;4997770;28;20050;-80
2021/10/22 11:45:05;;;;;;;1.33;1.15;;;9.10;99.90;;;;;;5028720;28;20049;-81
2021/10/22 11:47:48;;;;;;;0.98;0.93;;;9.20;99.90;;;;;;5022316;28;20030;-85
2021/10/22 11:50:34;;;;;;;6.63;1.02;;;9.30;99.90;;;;;;5001654;28;20042;-86
2021/10/22 11:53:05;;;;;;;4.55;0.98;;;9.40;99.90;;;;;;5026926;28;20534;-82
2021/10/22 11:55:34;;;;;;;0.60;0.60;;;9.50;99.90;;;;;;5032832;28;20045;-81
2021/10/22 11:58:10;;;;;;;2.83;1.17;;;9.40;99.90;;;;;;5006710;28;20046;-85
2021/10/22 12:00:46;;;;;;;3.38;0.85;;;9.30;99.90;;;;;;5009154;28;20188;-82
2021/10/22 12:03:12;;;;;;;2.23;0.80;;;9.00;99.90;;;;;;5032521;28;20514;-83
2021/10/22 12:05:41;;;;;;;3.47;0.88;;;8.80;99.90;;;;;;5011380;28;20045;-85
2021/10/22 12:08:07;;;;;;;1.55;0.93;;;8.70;99.90;;;;;;5031066;28;20415;-82
2021/10/22 12:10:37;;;;;;;;;;;8.70;99.90;;;;;;5025225;28;20053;-82
2021/10/22 12:13:04;;;;;;;1.98;0.95;;;8.60;99.90;;;;;;5000166;28;19917;-85
2021/10/22 12:15:33;;;;;;;0.70;0.70;;;8.60;99.90;;;;;;5024748;28;20377;-81
2021/10/22 12:18:01;;;;;;;0.70;0.70;;;8.60;99.90;;;;;;5018435;28;20041;-81
2021/10/22 12:20:28;;;;;;;6.50;1.40;;;8.60;99.90;;;;;;5017744;28;20720;-81
2021/10/22 12:23:02;;;;;;;8.20;0.90;;;8.60;99.90;;;;;;5016892;28;20502;-80
2021/10/22 12:25:30;;;;;;;6.97;1.08;;;8.80;99.90;;;;;;5045943;28;20751;-82
2021/10/22 12:28:01;;;;;;;4.55;0.73;;;9.00;99.90;;;;;;5041898;28;20064;-79
2021/10/22 12:30:28;;;;;;;1.75;1.00;;;9.20;99.90;;;;;;5027465;28;20045;-78
2021/10/22 12:33:03;;;;;;;3.67;1.63;;;9.60;99.90;;;;;;5012157;28;20535;-81
2021/10/22 12:35:42;;;;;;;1.60;0.85;;;9.80;99.90;;;;;;5024307;28;20438;-80
2021/10/22 12:38:14;;;;;;;6.38;1.30;;;9.80;99.90;;;;;;5032180;28;20034;-77
2021/10/22 12:40:46;;;;;;;1.48;1.38;;;9.70;99.90;;;;;;5021540;28;20400;-82
2021/10/22 12:43:17;;;;;;;1.65;1.10;;;9.60;99.90;;;;;;5009809;28;20047;-82
2021/10/22 12:46:00;;;;;;;4.85;1.00;;;9.50;99.90;;;;;;5019431;28;20042;-82
2021/10/22 12:48:33;;;;;;;3.05;0.90;;;9.40;99.90;;;;;;5037572;28;20061;-81
2021/10/22 12:51:06;;;;;;;1.40;1.25;;;9.30;99.90;;;;;;5030324;28;20403;-84
2021/10/22 12:53:35;;;;;;;7.13;1.00;;;9.30;99.90;;;;;;5038462;28;20037;-80
2021/10/22 12:56:04;;;;;;;1.77;1.13;;;9.40;99.90;;;;;;5032133;28;20072;-81
2021/10/22 12:58:30;;;;;;;0.73;0.60;;;9.60;99.90;;;;;;5031967;28;20121;-78
2021/10/22 13:01:09;;;;;;;8.05;1.00;;;9.90;99.90;;;;;;4996906;28;20136;-77
2021/10/22 13:03:37;;;;;;;6.88;1.10;;;10.10;99.90;;;;;;5015817;28;20348;-77
2021/10/22 13:06:25;;;;;;;3.40;0.95;;;10.20;99.90;;;;;;5030916;28;20455;-74
2021/10/22 13:09:15;;;;;;;0.93;0.90;;;10.20;99.90;;;;;;5025724;28;20728;-78
2021/10/22 13:22:22;;;;;;;3.67;1.35;;;10.00;99.90;;;;;;5024328;28;20053;-80
2021/10/22 13:24:53;;;;;;;2.15;1.00;;;9.90;99.90;;;;;;5029995;28;21052;-79